KBAZ

New Braunfels Regional Airport

New Braunfels, Texas, USA
METAR KBAZ 210851Z AUTO 14008KT 10SM OVC011 16/13 A2994 RMK AO2 SLP134 T01610133 58023
Observed Flight Rules
Apr-21 @ 08:51 UTC (48 minutes ago) Marginal Visual Flight Rules
Wind Visibility Clouds
140° at 8 knots 10 miles
  • Overcast at 1,100' AGL
Temperatures Readings
Current 16°C / 61°F
Dewpoint 13°C / 55°F
Humidity 83%
Altimeter 29.94" Hg
Pressure 1013.4 hPa
Elevation 195
METAR KBAZ 210851Z AUTO 14008KT 10SM OVC011 16/13 A2994 RMK AO2 SLP134 T01610133 58023
Observed Flight Rules
Apr-21 @ 08:51 UTC
(48 minutes ago)
MVFR
Wind Visibility
140° at 8 knots 10 miles
Clouds
  • Overcast at 1,100' AGL
Temperature Dewpoint
16°C / 61°F 13°C / 55°F
Humidity Altimeter Pressure
83% 29.94" Hg 1013.4 hPa